METAR EVRA 271920Z 19005KT 9999 -RA OVC005 04/03 Q1008 R18/290195 NOSIG =

ATC Feedback

If you've had an experience which you would like to give us feedback about, you're encouraged to fill out our online form, available HERE.

Controllers Online

PositionControllerOnline
No controllers currently online

Booked ATC Today

* Times are UTC

The time is now

UTC: 

Local: 

Latvia vACC on twitter

Official vACC of:

  

Latvia vACC on Facebook